Información del aeropuerto LSZA

Información de pista
Pista 01 Longitud 4429 ft Anchura 98 ft
Elevación 896 ft Umbral 361 ft Rumbo 19
Pista 19 Longitud 4429 ft Anchura 98 ft
Elevación 915 ft Umbral 672 ft Rumbo 199
Frecuencias del aeropuerto
Tipo ATIS Nombre ATIS Frecuencia 121.175 MHZ
Tipo GND Nombre GND Frecuencia 121.775 MHZ
Tipo TWR Nombre TWR Frecuencia 120.25 MHZ
Radioayudas del aeropuerto
Información meteorológica del aeropuerto y NOTAM
ADDS - METARS form results

(0304 UTC 23 January 2022)
Data provider http://aviationweather.gov/metar/data/
 
METAR text: LSZA 230250Z AUTO VRB02KT 9999 NCD 03/M01 Q1028
Conditions at: LSZA (LUGANO (PVT/AUT), CH) observed 0250 UTC 23 January 2022
Temperature: 3.0°C (37°F)
Dewpoint: -1.0°C (30°F) [RH = 75%]
Pressure (altimeter): 30.35 inches Hg (1028.0 mb)
Winds: variable direction winds at 2 MPH (2 knots; 1.0 m/s)
Visibility: 6 or more miles (10+ km)
Ceiling: at least 12,000 feet AGL
Clouds: sky clear below 12,000 feet AGL
Weather: no significant weather observed at this time

METAR text: LSZA 230220Z AUTO VRB03KT 9999 NCD 04/M02 Q1027
Conditions at: LSZA (LUGANO (PVT/AUT), CH) observed 0220 UTC 23 January 2022
Temperature: 4.0°C (39°F)
Dewpoint: -2.0°C (28°F) [RH = 65%]
Pressure (altimeter): 30.32 inches Hg (1027.0 mb)
Winds: variable direction winds at 3 MPH (3 knots; 1.5 m/s)
Visibility: 6 or more miles (10+ km)
Ceiling: at least 12,000 feet AGL
Clouds: sky clear below 12,000 feet AGL
Weather: no significant weather observed at this time